sensor_id;sensor_type;location;lat;lon;timestamp;P1;durP1;ratioP1;P2;durP2;ratioP2
40707;SDS011;26392;42.696;23.350;2023-06-24T00:00:34;5.60;;;3.20;;
40707;SDS011;26392;42.696;23.350;2023-06-24T00:03:01;3.90;;;3.22;;
40707;SDS011;26392;42.696;23.350;2023-06-24T00:05:27;4.75;;;3.58;;
40707;SDS011;26392;42.696;23.350;2023-06-24T00:07:53;13.15;;;3.30;;
40707;SDS011;26392;42.696;23.350;2023-06-24T00:10:21;12.45;;;3.25;;
40707;SDS011;26392;42.696;23.350;2023-06-24T00:12:47;4.80;;;3.55;;
40707;SDS011;26392;42.696;23.350;2023-06-24T00:15:12;4.20;;;3.45;;
40707;SDS011;26392;42.696;23.350;2023-06-24T00:17:38;6.97;;;4.10;;
40707;SDS011;26392;42.696;23.350;2023-06-24T00:20:04;5.70;;;4.22;;
40707;SDS011;26392;42.696;23.350;2023-06-24T00:22:32;6.50;;;4.25;;
40707;SDS011;26392;42.696;23.350;2023-06-24T00:24:58;7.47;;;3.67;;
40707;SDS011;26392;42.696;23.350;2023-06-24T00:27:24;6.00;;;3.35;;
40707;SDS011;26392;42.696;23.350;2023-06-24T00:29:50;6.45;;;4.10;;
40707;SDS011;26392;42.696;23.350;2023-06-24T00:32:15;5.40;;;3.58;;
40707;SDS011;26392;42.696;23.350;2023-06-24T00:34:40;13.52;;;4.00;;
40707;SDS011;26392;42.696;23.350;2023-06-24T00:37:10;5.88;;;4.15;;
40707;SDS011;26392;42.696;23.350;2023-06-24T00:39:35;4.35;;;3.10;;
40707;SDS011;26392;42.696;23.350;2023-06-24T00:42:01;5.30;;;3.33;;
40707;SDS011;26392;42.696;23.350;2023-06-24T00:44:26;4.05;;;2.72;;
40707;SDS011;26392;42.696;23.350;2023-06-24T00:46:53;4.28;;;3.03;;
40707;SDS011;26392;42.696;23.350;2023-06-24T00:49:19;3.35;;;2.72;;
40707;SDS011;26392;42.696;23.350;2023-06-24T00:51:44;6.28;;;3.65;;
40707;SDS011;26392;42.696;23.350;2023-06-24T00:54:12;4.55;;;2.85;;
40707;SDS011;26392;42.696;23.350;2023-06-24T00:56:38;5.00;;;3.47;;
40707;SDS011;26392;42.696;23.350;2023-06-24T00:59:03;4.47;;;3.60;;
40707;SDS011;26392;42.696;23.350;2023-06-24T01:01:34;5.50;;;3.05;;
40707;SDS011;26392;42.696;23.350;2023-06-24T01:04:02;5.10;;;3.15;;
40707;SDS011;26392;42.696;23.350;2023-06-24T01:06:28;5.13;;;3.08;;
40707;SDS011;26392;42.696;23.350;2023-06-24T01:08:57;5.13;;;3.38;;
40707;SDS011;26392;42.696;23.350;2023-06-24T01:11:25;6.30;;;3.33;;
40707;SDS011;26392;42.696;23.350;2023-06-24T01:13:50;5.30;;;3.60;;
40707;SDS011;26392;42.696;23.350;2023-06-24T01:16:20;6.72;;;3.28;;
40707;SDS011;26392;42.696;23.350;2023-06-24T01:18:52;3.88;;;2.65;;
40707;SDS011;26392;42.696;23.350;2023-06-24T01:32:43;5.55;;;2.97;;
40707;SDS011;26392;42.696;23.350;2023-06-24T01:35:16;3.90;;;2.85;;
40707;SDS011;26392;42.696;23.350;2023-06-24T01:37:46;7.07;;;3.50;;
40707;SDS011;26392;42.696;23.350;2023-06-24T01:40:30;5.57;;;3.30;;
40707;SDS011;26392;42.696;23.350;2023-06-24T01:43:02;3.05;;;2.65;;
40707;SDS011;26392;42.696;23.350;2023-06-24T01:45:32;4.38;;;3.08;;
40707;SDS011;26392;42.696;23.350;2023-06-24T01:50:38;5.25;;;2.97;;
40707;SDS011;26392;42.696;23.350;2023-06-24T01:53:07;5.75;;;3.38;;
40707;SDS011;26392;42.696;23.350;2023-06-24T01:55:34;5.15;;;3.40;;
40707;SDS011;26392;42.696;23.350;2023-06-24T01:58:03;6.95;;;3.63;;
40707;SDS011;26392;42.696;23.350;2023-06-24T02:00:32;4.88;;;3.15;;
40707;SDS011;26392;42.696;23.350;2023-06-24T02:03:00;5.75;;;3.72;;
40707;SDS011;26392;42.696;23.350;2023-06-24T02:05:26;6.72;;;2.97;;
40707;SDS011;26392;42.696;23.350;2023-06-24T02:07:53;4.60;;;3.17;;
40707;SDS011;26392;42.696;23.350;2023-06-24T02:10:20;4.10;;;3.13;;
40707;SDS011;26392;42.696;23.350;2023-06-24T02:12:47;5.72;;;3.67;;
40707;SDS011;26392;42.696;23.350;2023-06-24T02:15:14;6.57;;;3.78;;
40707;SDS011;26392;42.696;23.350;2023-06-24T02:17:41;4.32;;;3.53;;
40707;SDS011;26392;42.696;23.350;2023-06-24T02:20:07;4.75;;;3.13;;
40707;SDS011;26392;42.696;23.350;2023-06-24T02:22:36;4.45;;;3.25;;
40707;SDS011;26392;42.696;23.350;2023-06-24T02:25:04;5.55;;;2.97;;
40707;SDS011;26392;42.696;23.350;2023-06-24T02:27:31;5.60;;;3.78;;
40707;SDS011;26392;42.696;23.350;2023-06-24T02:29:57;6.75;;;4.05;;
40707;SDS011;26392;42.696;23.350;2023-06-24T02:32:24;6.78;;;3.95;;
40707;SDS011;26392;42.696;23.350;2023-06-24T02:34:50;4.97;;;3.38;;
40707;SDS011;26392;42.696;23.350;2023-06-24T02:37:15;7.82;;;4.15;;
40707;SDS011;26392;42.696;23.350;2023-06-24T02:39:41;5.43;;;3.53;;
40707;SDS011;26392;42.696;23.350;2023-06-24T02:42:10;6.93;;;4.63;;
40707;SDS011;26392;42.696;23.350;2023-06-24T02:44:36;6.93;;;4.38;;
40707;SDS011;26392;42.696;23.350;2023-06-24T02:47:04;4.85;;;3.90;;
40707;SDS011;26392;42.696;23.350;2023-06-24T02:49:32;7.40;;;4.25;;
40707;SDS011;26392;42.696;23.350;2023-06-24T02:51:58;5.50;;;3.90;;
40707;SDS011;26392;42.696;23.350;2023-06-24T02:54:24;5.10;;;4.28;;
40707;SDS011;26392;42.696;23.350;2023-06-24T02:56:49;6.93;;;4.30;;
40707;SDS011;26392;42.696;23.350;2023-06-24T02:59:15;7.32;;;4.05;;
40707;SDS011;26392;42.696;23.350;2023-06-24T03:01:41;5.78;;;3.55;;
40707;SDS011;26392;42.696;23.350;2023-06-24T03:04:10;5.00;;;3.08;;
40707;SDS011;26392;42.696;23.350;2023-06-24T03:06:35;5.78;;;3.65;;
40707;SDS011;26392;42.696;23.350;2023-06-24T03:09:01;7.60;;;4.88;;
40707;SDS011;26392;42.696;23.350;2023-06-24T03:11:28;5.18;;;3.85;;
40707;SDS011;26392;42.696;23.350;2023-06-24T03:13:54;5.35;;;3.92;;
40707;SDS011;26392;42.696;23.350;2023-06-24T03:16:19;7.75;;;4.65;;
40707;SDS011;26392;42.696;23.350;2023-06-24T03:18:45;5.40;;;4.10;;
40707;SDS011;26392;42.696;23.350;2023-06-24T03:21:10;5.65;;;4.18;;
40707;SDS011;26392;42.696;23.350;2023-06-24T03:23:36;4.38;;;3.60;;
40707;SDS011;26392;42.696;23.350;2023-06-24T03:26:01;5.75;;;3.92;;
40707;SDS011;26392;42.696;23.350;2023-06-24T03:28:29;7.60;;;3.88;;
40707;SDS011;26392;42.696;23.350;2023-06-24T03:30:56;5.65;;;4.28;;
40707;SDS011;26392;42.696;23.350;2023-06-24T03:33:22;6.43;;;4.07;;
40707;SDS011;26392;42.696;23.350;2023-06-24T03:35:49;6.25;;;4.40;;
40707;SDS011;26392;42.696;23.350;2023-06-24T03:38:15;8.02;;;4.72;;
40707;SDS011;26392;42.696;23.350;2023-06-24T03:40:40;9.32;;;5.38;;
40707;SDS011;26392;42.696;23.350;2023-06-24T03:43:05;7.90;;;5.22;;
40707;SDS011;26392;42.696;23.350;2023-06-24T03:45:31;6.55;;;4.30;;
40707;SDS011;26392;42.696;23.350;2023-06-24T03:47:56;4.90;;;3.95;;
40707;SDS011;26392;42.696;23.350;2023-06-24T03:50:22;6.95;;;4.88;;
40707;SDS011;26392;42.696;23.350;2023-06-24T03:52:47;8.93;;;5.35;;
40707;SDS011;26392;42.696;23.350;2023-06-24T03:55:12;9.20;;;5.70;;
40707;SDS011;26392;42.696;23.350;2023-06-24T03:57:38;5.18;;;3.75;;
40707;SDS011;26392;42.696;23.350;2023-06-24T04:00:03;5.38;;;4.00;;
40707;SDS011;26392;42.696;23.350;2023-06-24T04:05:03;7.05;;;4.15;;
40707;SDS011;26392;42.696;23.350;2023-06-24T04:07:31;18.98;;;5.07;;
40707;SDS011;26392;42.696;23.350;2023-06-24T04:09:57;7.40;;;4.40;;
40707;SDS011;26392;42.696;23.350;2023-06-24T04:12:23;6.70;;;4.20;;
40707;SDS011;26392;42.696;23.350;2023-06-24T04:14:48;7.25;;;4.43;;
40707;SDS011;26392;42.696;23.350;2023-06-24T04:17:14;6.35;;;4.18;;
40707;SDS011;26392;42.696;23.350;2023-06-24T04:19:40;6.38;;;4.57;;
40707;SDS011;26392;42.696;23.350;2023-06-24T04:22:05;6.28;;;4.50;;
40707;SDS011;26392;42.696;23.350;2023-06-24T04:24:31;6.65;;;4.45;;
40707;SDS011;26392;42.696;23.350;2023-06-24T04:26:57;5.53;;;4.00;;
40707;SDS011;26392;42.696;23.350;2023-06-24T04:29:23;6.32;;;4.40;;
40707;SDS011;26392;42.696;23.350;2023-06-24T04:31:48;7.53;;;4.43;;
40707;SDS011;26392;42.696;23.350;2023-06-24T04:34:14;5.88;;;4.07;;
40707;SDS011;26392;42.696;23.350;2023-06-24T04:36:39;5.25;;;4.20;;
40707;SDS011;26392;42.696;23.350;2023-06-24T04:39:04;5.53;;;4.00;;
40707;SDS011;26392;42.696;23.350;2023-06-24T04:41:30;5.43;;;3.70;;
40707;SDS011;26392;42.696;23.350;2023-06-24T04:43:57;5.53;;;3.80;;
40707;SDS011;26392;42.696;23.350;2023-06-24T04:46:22;6.70;;;4.45;;
40707;SDS011;26392;42.696;23.350;2023-06-24T04:48:48;4.80;;;4.20;;
40707;SDS011;26392;42.696;23.350;2023-06-24T04:51:14;5.50;;;3.83;;
40707;SDS011;26392;42.696;23.350;2023-06-24T04:53:40;6.60;;;3.92;;
40707;SDS011;26392;42.696;23.350;2023-06-24T04:56:05;5.45;;;4.15;;
40707;SDS011;26392;42.696;23.350;2023-06-24T04:58:31;6.68;;;4.03;;
40707;SDS011;26392;42.696;23.350;2023-06-24T05:00:56;8.38;;;4.55;;
40707;SDS011;26392;42.696;23.350;2023-06-24T05:03:22;5.53;;;4.20;;
40707;SDS011;26392;42.696;23.350;2023-06-24T05:05:47;5.30;;;4.30;;
40707;SDS011;26392;42.696;23.350;2023-06-24T05:08:13;6.95;;;4.47;;
40707;SDS011;26392;42.696;23.350;2023-06-24T05:10:38;7.13;;;4.28;;
40707;SDS011;26392;42.696;23.350;2023-06-24T05:13:04;6.97;;;4.15;;
40707;SDS011;26392;42.696;23.350;2023-06-24T05:15:29;5.32;;;4.05;;
40707;SDS011;26392;42.696;23.350;2023-06-24T05:17:55;12.60;;;5.07;;
40707;SDS011;26392;42.696;23.350;2023-06-24T05:20:21;13.52;;;4.22;;
40707;SDS011;26392;42.696;23.350;2023-06-24T05:22:46;5.65;;;4.30;;
40707;SDS011;26392;42.696;23.350;2023-06-24T05:25:12;5.60;;;3.97;;
40707;SDS011;26392;42.696;23.350;2023-06-24T05:27:37;5.68;;;3.85;;
40707;SDS011;26392;42.696;23.350;2023-06-24T05:30:02;4.57;;;3.95;;
40707;SDS011;26392;42.696;23.350;2023-06-24T05:32:28;6.63;;;3.95;;
40707;SDS011;26392;42.696;23.350;2023-06-24T05:34:53;5.30;;;3.53;;
40707;SDS011;26392;42.696;23.350;2023-06-24T05:37:19;5.88;;;3.70;;
40707;SDS011;26392;42.696;23.350;2023-06-24T05:39:44;5.93;;;4.00;;
40707;SDS011;26392;42.696;23.350;2023-06-24T05:42:10;7.15;;;3.72;;
40707;SDS011;26392;42.696;23.350;2023-06-24T05:44:35;6.55;;;4.15;;
40707;SDS011;26392;42.696;23.350;2023-06-24T05:47:00;5.63;;;4.03;;
40707;SDS011;26392;42.696;23.350;2023-06-24T05:49:26;6.30;;;4.40;;
40707;SDS011;26392;42.696;23.350;2023-06-24T05:51:51;5.10;;;3.65;;
40707;SDS011;26392;42.696;23.350;2023-06-24T05:54:16;6.70;;;4.57;;
40707;SDS011;26392;42.696;23.350;2023-06-24T05:56:42;6.47;;;4.90;;
40707;SDS011;26392;42.696;23.350;2023-06-24T05:59:07;7.07;;;4.47;;
40707;SDS011;26392;42.696;23.350;2023-06-24T06:01:33;6.82;;;4.03;;
40707;SDS011;26392;42.696;23.350;2023-06-24T06:03:58;11.23;;;5.65;;
40707;SDS011;26392;42.696;23.350;2023-06-24T06:06:24;6.30;;;3.92;;
40707;SDS011;26392;42.696;23.350;2023-06-24T06:08:49;8.20;;;4.65;;
40707;SDS011;26392;42.696;23.350;2023-06-24T06:11:14;5.55;;;4.05;;
40707;SDS011;26392;42.696;23.350;2023-06-24T06:13:40;5.28;;;3.63;;
40707;SDS011;26392;42.696;23.350;2023-06-24T06:16:05;5.72;;;3.60;;
40707;SDS011;26392;42.696;23.350;2023-06-24T06:18:31;5.03;;;3.70;;
40707;SDS011;26392;42.696;23.350;2023-06-24T06:20:56;7.93;;;4.20;;
40707;SDS011;26392;42.696;23.350;2023-06-24T06:23:22;3.92;;;3.38;;
40707;SDS011;26392;42.696;23.350;2023-06-24T06:25:47;7.10;;;4.60;;
40707;SDS011;26392;42.696;23.350;2023-06-24T06:28:12;5.00;;;3.65;;
40707;SDS011;26392;42.696;23.350;2023-06-24T06:30:38;6.72;;;4.10;;
40707;SDS011;26392;42.696;23.350;2023-06-24T06:33:03;5.57;;;3.58;;
40707;SDS011;26392;42.696;23.350;2023-06-24T06:35:29;4.68;;;3.97;;
40707;SDS011;26392;42.696;23.350;2023-06-24T06:37:54;5.57;;;3.78;;
40707;SDS011;26392;42.696;23.350;2023-06-24T06:40:22;6.15;;;3.90;;
40707;SDS011;26392;42.696;23.350;2023-06-24T06:42:47;7.32;;;3.97;;
40707;SDS011;26392;42.696;23.350;2023-06-24T06:45:14;5.32;;;3.97;;
40707;SDS011;26392;42.696;23.350;2023-06-24T06:47:39;6.70;;;4.07;;
40707;SDS011;26392;42.696;23.350;2023-06-24T06:50:05;6.93;;;3.78;;
40707;SDS011;26392;42.696;23.350;2023-06-24T06:52:31;4.95;;;3.60;;
40707;SDS011;26392;42.696;23.350;2023-06-24T06:54:57;7.28;;;4.82;;
40707;SDS011;26392;42.696;23.350;2023-06-24T06:57:23;5.93;;;3.75;;
40707;SDS011;26392;42.696;23.350;2023-06-24T06:59:48;5.70;;;3.75;;
40707;SDS011;26392;42.696;23.350;2023-06-24T07:02:17;7.03;;;4.00;;
40707;SDS011;26392;42.696;23.350;2023-06-24T07:04:43;6.22;;;4.32;;
40707;SDS011;26392;42.696;23.350;2023-06-24T07:07:09;5.60;;;3.80;;
40707;SDS011;26392;42.696;23.350;2023-06-24T07:09:34;5.03;;;3.40;;
40707;SDS011;26392;42.696;23.350;2023-06-24T07:12:00;4.85;;;4.03;;
40707;SDS011;26392;42.696;23.350;2023-06-24T07:14:26;6.15;;;3.72;;
40707;SDS011;26392;42.696;23.350;2023-06-24T07:16:51;11.50;;;3.85;;
40707;SDS011;26392;42.696;23.350;2023-06-24T07:19:17;5.63;;;4.28;;
40707;SDS011;26392;42.696;23.350;2023-06-24T07:21:42;5.35;;;3.75;;
40707;SDS011;26392;42.696;23.350;2023-06-24T07:24:07;4.65;;;3.40;;
40707;SDS011;26392;42.696;23.350;2023-06-24T07:26:33;4.57;;;3.67;;
40707;SDS011;26392;42.696;23.350;2023-06-24T07:28:58;3.92;;;3.50;;
40707;SDS011;26392;42.696;23.350;2023-06-24T07:31:24;5.32;;;3.55;;
40707;SDS011;26392;42.696;23.350;2023-06-24T07:33:50;5.35;;;3.67;;
40707;SDS011;26392;42.696;23.350;2023-06-24T07:36:15;6.18;;;3.92;;
40707;SDS011;26392;42.696;23.350;2023-06-24T07:38:41;5.47;;;3.60;;
40707;SDS011;26392;42.696;23.350;2023-06-24T07:41:06;4.78;;;3.65;;
40707;SDS011;26392;42.696;23.350;2023-06-24T07:43:31;4.43;;;3.40;;
40707;SDS011;26392;42.696;23.350;2023-06-24T07:45:57;5.25;;;4.03;;
40707;SDS011;26392;42.696;23.350;2023-06-24T07:48:22;5.43;;;4.20;;
40707;SDS011;26392;42.696;23.350;2023-06-24T07:50:48;5.75;;;3.47;;
40707;SDS011;26392;42.696;23.350;2023-06-24T07:53:14;6.22;;;4.55;;
40707;SDS011;26392;42.696;23.350;2023-06-24T07:55:39;4.82;;;3.70;;
40707;SDS011;26392;42.696;23.350;2023-06-24T07:58:05;3.78;;;3.10;;
40707;SDS011;26392;42.696;23.350;2023-06-24T08:00:30;6.60;;;4.75;;
40707;SDS011;26392;42.696;23.350;2023-06-24T08:02:59;10.95;;;4.40;;
40707;SDS011;26392;42.696;23.350;2023-06-24T08:05:24;5.57;;;3.65;;
40707;SDS011;26392;42.696;23.350;2023-06-24T08:07:50;4.80;;;2.95;;
40707;SDS011;26392;42.696;23.350;2023-06-24T08:10:16;4.82;;;3.53;;
40707;SDS011;26392;42.696;23.350;2023-06-24T08:12:41;6.38;;;4.00;;
40707;SDS011;26392;42.696;23.350;2023-06-24T08:15:07;4.78;;;3.72;;
40707;SDS011;26392;42.696;23.350;2023-06-24T08:17:33;4.75;;;3.33;;
40707;SDS011;26392;42.696;23.350;2023-06-24T08:19:58;4.82;;;3.25;;
40707;SDS011;26392;42.696;23.350;2023-06-24T08:22:24;6.65;;;4.15;;
40707;SDS011;26392;42.696;23.350;2023-06-24T08:24:49;4.18;;;3.25;;
40707;SDS011;26392;42.696;23.350;2023-06-24T08:27:14;10.50;;;4.20;;
40707;SDS011;26392;42.696;23.350;2023-06-24T08:29:40;4.28;;;3.35;;
40707;SDS011;26392;42.696;23.350;2023-06-24T08:32:05;5.75;;;4.20;;
40707;SDS011;26392;42.696;23.350;2023-06-24T08:34:32;4.95;;;3.42;;
40707;SDS011;26392;42.696;23.350;2023-06-24T08:36:58;4.93;;;3.45;;
40707;SDS011;26392;42.696;23.350;2023-06-24T08:39:23;5.50;;;3.90;;
40707;SDS011;26392;42.696;23.350;2023-06-24T08:41:49;5.05;;;4.10;;
40707;SDS011;26392;42.696;23.350;2023-06-24T08:44:14;4.80;;;3.60;;
40707;SDS011;26392;42.696;23.350;2023-06-24T08:46:40;5.82;;;3.92;;
40707;SDS011;26392;42.696;23.350;2023-06-24T08:52:08;5.13;;;3.60;;
40707;SDS011;26392;42.696;23.350;2023-06-24T08:54:38;4.47;;;3.42;;
40707;SDS011;26392;42.696;23.350;2023-06-24T08:57:06;3.90;;;3.15;;
40707;SDS011;26392;42.696;23.350;2023-06-24T08:59:36;4.75;;;3.55;;
40707;SDS011;26392;42.696;23.350;2023-06-24T09:02:02;7.40;;;3.83;;
40707;SDS011;26392;42.696;23.350;2023-06-24T09:04:27;3.83;;;3.05;;
40707;SDS011;26392;42.696;23.350;2023-06-24T09:06:53;5.75;;;3.42;;
40707;SDS011;26392;42.696;23.350;2023-06-24T09:09:21;5.25;;;3.75;;
40707;SDS011;26392;42.696;23.350;2023-06-24T09:11:54;4.80;;;3.90;;
40707;SDS011;26392;42.696;23.350;2023-06-24T09:14:21;4.53;;;3.33;;
40707;SDS011;26392;42.696;23.350;2023-06-24T09:16:52;6.15;;;4.25;;
40707;SDS011;26392;42.696;23.350;2023-06-24T09:19:25;4.60;;;3.60;;
40707;SDS011;26392;42.696;23.350;2023-06-24T09:21:55;4.55;;;3.38;;
40707;SDS011;26392;42.696;23.350;2023-06-24T09:24:21;5.47;;;4.00;;
40707;SDS011;26392;42.696;23.350;2023-06-24T09:26:46;5.53;;;3.92;;
40707;SDS011;26392;42.696;23.350;2023-06-24T09:29:15;4.18;;;3.42;;
40707;SDS011;26392;42.696;23.350;2023-06-24T09:31:49;12.80;;;3.95;;
40707;SDS011;26392;42.696;23.350;2023-06-24T09:34:18;5.97;;;4.10;;
40707;SDS011;26392;42.696;23.350;2023-06-24T09:36:44;6.30;;;3.97;;
40707;SDS011;26392;42.696;23.350;2023-06-24T09:39:15;4.35;;;3.38;;
40707;SDS011;26392;42.696;23.350;2023-06-24T09:41:41;4.68;;;3.85;;
40707;SDS011;26392;42.696;23.350;2023-06-24T09:44:10;5.05;;;3.55;;
40707;SDS011;26392;42.696;23.350;2023-06-24T09:46:36;5.55;;;3.40;;
40707;SDS011;26392;42.696;23.350;2023-06-24T09:49:05;6.65;;;4.43;;
40707;SDS011;26392;42.696;23.350;2023-06-24T09:51:37;4.50;;;3.40;;
40707;SDS011;26392;42.696;23.350;2023-06-24T09:54:07;3.00;;;2.47;;
40707;SDS011;26392;42.696;23.350;2023-06-24T09:56:36;3.70;;;3.15;;
40707;SDS011;26392;42.696;23.350;2023-06-24T09:59:06;4.55;;;3.53;;
40707;SDS011;26392;42.696;23.350;2023-06-24T10:01:32;3.85;;;3.33;;
40707;SDS011;26392;42.696;23.350;2023-06-24T10:04:03;4.20;;;3.80;;
40707;SDS011;26392;42.696;23.350;2023-06-24T10:06:30;6.35;;;4.05;;
40707;SDS011;26392;42.696;23.350;2023-06-24T10:08:57;4.47;;;3.58;;
40707;SDS011;26392;42.696;23.350;2023-06-24T10:11:24;4.32;;;3.25;;
40707;SDS011;26392;42.696;23.350;2023-06-24T10:13:49;4.72;;;3.72;;
40707;SDS011;26392;42.696;23.350;2023-06-24T10:16:15;5.18;;;3.88;;
40707;SDS011;26392;42.696;23.350;2023-06-24T10:18:41;9.25;;;3.70;;
40707;SDS011;26392;42.696;23.350;2023-06-24T10:21:09;6.10;;;4.15;;
40707;SDS011;26392;42.696;23.350;2023-06-24T10:23:39;4.88;;;3.30;;
40707;SDS011;26392;42.696;23.350;2023-06-24T10:26:22;5.90;;;4.05;;
40707;SDS011;26392;42.696;23.350;2023-06-24T10:36:55;8.15;;;3.88;;
40707;SDS011;26392;42.696;23.350;2023-06-24T10:39:40;3.40;;;2.92;;
40707;SDS011;26392;42.696;23.350;2023-06-24T10:50:03;5.50;;;2.85;;
40707;SDS011;26392;42.696;23.350;2023-06-24T10:52:30;3.88;;;3.22;;
40707;SDS011;26392;42.696;23.350;2023-06-24T10:54:56;4.43;;;3.22;;
40707;SDS011;26392;42.696;23.350;2023-06-24T10:57:26;4.30;;;3.03;;
40707;SDS011;26392;42.696;23.350;2023-06-24T10:59:53;3.70;;;3.38;;
40707;SDS011;26392;42.696;23.350;2023-06-24T11:02:20;3.17;;;2.63;;
40707;SDS011;26392;42.696;23.350;2023-06-24T11:05:04;4.43;;;3.33;;
40707;SDS011;26392;42.696;23.350;2023-06-24T11:07:31;2.63;;;2.25;;
40707;SDS011;26392;42.696;23.350;2023-06-24T11:10:06;4.15;;;2.67;;
40707;SDS011;26392;42.696;23.350;2023-06-24T11:12:38;3.85;;;2.70;;
40707;SDS011;26392;42.696;23.350;2023-06-24T11:15:08;4.47;;;3.10;;
40707;SDS011;26392;42.696;23.350;2023-06-24T11:17:40;3.40;;;2.60;;
40707;SDS011;26392;42.696;23.350;2023-06-24T11:20:09;4.25;;;2.35;;
40707;SDS011;26392;42.696;23.350;2023-06-24T11:22:37;4.43;;;2.70;;
40707;SDS011;26392;42.696;23.350;2023-06-24T11:25:02;3.30;;;2.65;;
40707;SDS011;26392;42.696;23.350;2023-06-24T11:27:29;3.33;;;2.55;;
40707;SDS011;26392;42.696;23.350;2023-06-24T11:29:56;4.88;;;2.20;;
40707;SDS011;26392;42.696;23.350;2023-06-24T11:32:39;2.40;;;2.00;;
40707;SDS011;26392;42.696;23.350;2023-06-24T11:35:06;2.95;;;2.50;;
40707;SDS011;26392;42.696;23.350;2023-06-24T11:37:34;3.25;;;2.30;;
40707;SDS011;26392;42.696;23.350;2023-06-24T11:40:06;3.53;;;1.55;;
40707;SDS011;26392;42.696;23.350;2023-06-24T11:42:36;3.50;;;2.55;;
40707;SDS011;26392;42.696;23.350;2023-06-24T11:45:03;3.75;;;2.60;;
40707;SDS011;26392;42.696;23.350;2023-06-24T11:47:36;2.65;;;2.20;;
40707;SDS011;26392;42.696;23.350;2023-06-24T11:50:04;3.50;;;2.47;;
40707;SDS011;26392;42.696;23.350;2023-06-24T11:52:49;3.00;;;2.45;;
40707;SDS011;26392;42.696;23.350;2023-06-24T11:55:18;2.90;;;2.60;;
40707;SDS011;26392;42.696;23.350;2023-06-24T11:57:52;3.58;;;2.55;;
40707;SDS011;26392;42.696;23.350;2023-06-24T12:00:25;3.40;;;2.42;;
40707;SDS011;26392;42.696;23.350;2023-06-24T12:02:52;2.53;;;2.00;;
40707;SDS011;26392;42.696;23.350;2023-06-24T12:05:20;4.03;;;2.60;;
40707;SDS011;26392;42.696;23.350;2023-06-24T12:07:51;5.72;;;2.67;;
40707;SDS011;26392;42.696;23.350;2023-06-24T12:10:21;2.78;;;2.47;;
40707;SDS011;26392;42.696;23.350;2023-06-24T12:12:46;3.15;;;2.42;;
40707;SDS011;26392;42.696;23.350;2023-06-24T12:15:11;3.47;;;2.42;;
40707;SDS011;26392;42.696;23.350;2023-06-24T12:17:37;2.83;;;2.38;;
40707;SDS011;26392;42.696;23.350;2023-06-24T12:20:02;4.28;;;2.47;;
40707;SDS011;26392;42.696;23.350;2023-06-24T12:22:28;3.22;;;2.60;;
40707;SDS011;26392;42.696;23.350;2023-06-24T12:24:53;2.95;;;2.65;;
40707;SDS011;26392;42.696;23.350;2023-06-24T12:27:19;4.20;;;3.22;;
40707;SDS011;26392;42.696;23.350;2023-06-24T12:29:44;3.33;;;2.58;;
40707;SDS011;26392;42.696;23.350;2023-06-24T12:32:10;4.72;;;2.90;;
40707;SDS011;26392;42.696;23.350;2023-06-24T12:34:35;15.25;;;2.78;;
40707;SDS011;26392;42.696;23.350;2023-06-24T12:37:00;3.30;;;2.80;;
40707;SDS011;26392;42.696;23.350;2023-06-24T12:39:26;4.45;;;2.90;;
40707;SDS011;26392;42.696;23.350;2023-06-24T12:41:51;2.78;;;2.53;;
40707;SDS011;26392;42.696;23.350;2023-06-24T12:44:17;5.05;;;2.92;;
40707;SDS011;26392;42.696;23.350;2023-06-24T12:46:42;3.90;;;3.17;;
40707;SDS011;26392;42.696;23.350;2023-06-24T12:49:07;2.88;;;2.65;;
40707;SDS011;26392;42.696;23.350;2023-06-24T12:51:33;3.28;;;2.78;;
40707;SDS011;26392;42.696;23.350;2023-06-24T12:53:58;3.55;;;2.38;;
40707;SDS011;26392;42.696;23.350;2023-06-24T12:56:23;2.83;;;2.47;;
40707;SDS011;26392;42.696;23.350;2023-06-24T12:58:49;3.22;;;2.70;;
40707;SDS011;26392;42.696;23.350;2023-06-24T13:01:14;4.30;;;2.72;;
40707;SDS011;26392;42.696;23.350;2023-06-24T13:03:40;2.65;;;2.35;;
40707;SDS011;26392;42.696;23.350;2023-06-24T13:06:05;4.03;;;2.80;;
40707;SDS011;26392;42.696;23.350;2023-06-24T13:08:30;3.85;;;2.38;;
40707;SDS011;26392;42.696;23.350;2023-06-24T13:10:56;3.92;;;2.92;;
40707;SDS011;26392;42.696;23.350;2023-06-24T13:13:21;5.63;;;2.92;;
40707;SDS011;26392;42.696;23.350;2023-06-24T13:15:47;4.07;;;2.60;;
40707;SDS011;26392;42.696;23.350;2023-06-24T13:18:12;4.15;;;2.72;;
40707;SDS011;26392;42.696;23.350;2023-06-24T13:20:37;6.53;;;2.95;;
40707;SDS011;26392;42.696;23.350;2023-06-24T13:23:03;4.20;;;2.90;;
40707;SDS011;26392;42.696;23.350;2023-06-24T13:25:28;5.28;;;2.95;;
40707;SDS011;26392;42.696;23.350;2023-06-24T13:27:54;6.78;;;2.97;;
40707;SDS011;26392;42.696;23.350;2023-06-24T13:30:19;5.88;;;2.53;;
40707;SDS011;26392;42.696;23.350;2023-06-24T13:32:45;4.22;;;3.15;;
40707;SDS011;26392;42.696;23.350;2023-06-24T13:35:10;2.85;;;2.53;;
40707;SDS011;26392;42.696;23.350;2023-06-24T13:37:36;2.70;;;2.50;;
40707;SDS011;26392;42.696;23.350;2023-06-24T13:40:03;4.43;;;1.95;;
40707;SDS011;26392;42.696;23.350;2023-06-24T13:42:29;8.80;;;3.50;;
40707;SDS011;26392;42.696;23.350;2023-06-24T13:44:55;8.00;;;2.60;;
40707;SDS011;26392;42.696;23.350;2023-06-24T13:47:20;4.63;;;2.33;;
40707;SDS011;26392;42.696;23.350;2023-06-24T13:49:47;8.82;;;2.15;;
40707;SDS011;26392;42.696;23.350;2023-06-24T13:52:12;5.13;;;2.28;;
40707;SDS011;26392;42.696;23.350;2023-06-24T13:54:38;3.92;;;1.85;;
40707;SDS011;26392;42.696;23.350;2023-06-24T13:57:03;3.10;;;2.22;;
40707;SDS011;26392;42.696;23.350;2023-06-24T13:59:29;3.00;;;2.42;;
40707;SDS011;26392;42.696;23.350;2023-06-24T14:01:54;2.53;;;1.92;;
40707;SDS011;26392;42.696;23.350;2023-06-24T14:04:19;2.97;;;1.83;;
40707;SDS011;26392;42.696;23.350;2023-06-24T14:06:45;2.40;;;1.90;;
40707;SDS011;26392;42.696;23.350;2023-06-24T14:09:11;4.82;;;2.35;;
40707;SDS011;26392;42.696;23.350;2023-06-24T14:11:37;2.75;;;2.03;;
40707;SDS011;26392;42.696;23.350;2023-06-24T14:14:03;4.90;;;1.63;;
40707;SDS011;26392;42.696;23.350;2023-06-24T14:16:28;3.60;;;1.90;;
40707;SDS011;26392;42.696;23.350;2023-06-24T14:18:53;4.07;;;1.90;;
40707;SDS011;26392;42.696;23.350;2023-06-24T14:21:19;2.67;;;2.33;;
40707;SDS011;26392;42.696;23.350;2023-06-24T14:23:44;4.75;;;2.83;;
40707;SDS011;26392;42.696;23.350;2023-06-24T14:26:10;8.50;;;2.65;;
40707;SDS011;26392;42.696;23.350;2023-06-24T14:28:36;2.15;;;1.95;;
40707;SDS011;26392;42.696;23.350;2023-06-24T14:31:01;4.55;;;2.70;;
40707;SDS011;26392;42.696;23.350;2023-06-24T14:33:26;6.47;;;2.72;;
40707;SDS011;26392;42.696;23.350;2023-06-24T14:35:52;3.92;;;2.53;;
40707;SDS011;26392;42.696;23.350;2023-06-24T14:38:17;9.18;;;3.13;;
40707;SDS011;26392;42.696;23.350;2023-06-24T14:40:43;3.80;;;1.90;;
40707;SDS011;26392;42.696;23.350;2023-06-24T14:43:09;4.15;;;2.67;;
40707;SDS011;26392;42.696;23.350;2023-06-24T14:45:34;3.30;;;1.90;;
40707;SDS011;26392;42.696;23.350;2023-06-24T14:47:59;7.88;;;2.70;;
40707;SDS011;26392;42.696;23.350;2023-06-24T14:50:25;5.65;;;2.10;;
40707;SDS011;26392;42.696;23.350;2023-06-24T14:52:50;6.70;;;2.42;;
40707;SDS011;26392;42.696;23.350;2023-06-24T14:55:16;4.45;;;1.85;;
40707;SDS011;26392;42.696;23.350;2023-06-24T14:57:41;6.88;;;4.75;;
40707;SDS011;26392;42.696;23.350;2023-06-24T15:00:07;4.18;;;2.55;;
40707;SDS011;26392;42.696;23.350;2023-06-24T15:02:34;3.78;;;2.47;;
40707;SDS011;26392;42.696;23.350;2023-06-24T15:05:01;3.33;;;2.00;;